Time;durP1;ratioP1;P1;durP2;ratioP2;P2;SDS_P1;SDS_P2;PMS_P1;PMS_P2;Temp;Humidity;BMP_temperature;BMP_pressure;BME280_temperature;BME280_humidity;BME280_pressure;Samples;Min_cycle;Max_cycle;Signal;HPM_P1;HPM_P2
2023/02/28 00:00:46;;;;;;;24.05;10.30;;;;;;;11.16;88.67;100581.38;5050469;28;20029;-30
2023/02/28 00:03:11;;;;;;;22.70;10.18;;;;;;;11.04;88.34;100567.84;5050480;28;20090;-30
2023/02/28 00:05:37;;;;;;;23.50;11.05;;;;;;;11.26;87.48;100581.75;5049495;28;20029;-30
2023/02/28 00:08:02;;;;;;;14.00;8.05;;;;;;;11.36;88.04;100591.97;5048936;28;20029;-32
2023/02/28 00:10:30;;;;;;;18.58;9.23;;;;;;;11.29;87.98;100592.00;5050034;28;20060;-31
2023/02/28 00:13:00;;;;;;;25.20;11.77;;;;;;;11.45;87.28;100590.72;5050221;28;20130;-32
2023/02/28 00:15:25;;;;;;;48.45;19.75;;;;;;;11.37;86.79;100561.56;5049627;28;20036;-30
2023/02/28 00:17:53;;;;;;;37.30;16.75;;;;;;;11.55;85.79;100595.63;5050009;28;20484;-30
2023/02/28 00:20:19;;;;;;;27.77;12.73;;;;;;;11.61;85.03;100574.19;5049917;28;20036;-31
2023/02/28 00:22:48;;;;;;;19.40;9.05;;;;;;;11.71;85.42;100599.63;5049872;28;20039;-30
2023/02/28 00:25:14;;;;;;;;;;;;;;;11.78;83.97;100597.75;5050306;28;20099;-35
2023/02/28 00:27:40;;;;;;;19.45;10.45;;;;;;;11.78;84.09;100590.53;5050064;28;19912;-30
2023/02/28 00:30:11;;;;;;;21.80;10.18;;;;;;;11.85;83.29;100601.22;5049720;28;20035;-30
2023/02/28 00:32:39;;;;;;;17.15;10.38;;;;;;;11.85;83.71;100606.56;5049885;28;20728;-30
2023/02/28 00:35:05;;;;;;;16.73;9.63;;;;;;;11.87;82.98;100601.84;5050111;28;20029;-31
2023/02/28 00:37:31;;;;;;;16.52;8.85;;;;;;;12.03;83.07;100625.41;5049189;28;20068;-30
2023/02/28 00:39:57;;;;;;;24.77;9.75;;;;;;;11.90;83.55;100619.31;5049715;28;20037;-30
2023/02/28 00:42:23;;;;;;;16.45;9.38;;;;;;;11.79;84.17;100618.09;5049431;28;20056;-30
2023/02/28 00:44:49;;;;;;;22.45;10.98;;;;;;;12.01;83.59;100640.84;5049931;28;20491;-33
2023/02/28 00:47:14;;;;;;;19.00;10.15;;;;;;;11.78;84.33;100645.84;5049368;28;20052;-31
2023/02/28 00:49:40;;;;;;;20.17;9.77;;;;;;;11.42;85.10;100649.88;5049584;28;20540;-32
2023/02/28 00:52:06;;;;;;;18.20;9.48;;;;;;;11.35;85.43;100646.41;5049122;28;20090;-31
2023/02/28 00:54:31;;;;;;;19.40;9.73;;;;;;;11.16;86.60;100661.47;5049804;28;20071;-31
2023/02/28 00:56:57;;;;;;;20.23;9.55;;;;;;;10.90;86.99;100651.63;5049440;28;20021;-32
2023/02/28 00:59:22;;;;;;;18.50;9.05;;;;;;;10.75;87.50;100634.00;5049210;28;20024;-31
2023/02/28 01:01:48;;;;;;;18.17;9.70;;;;;;;10.51;89.22;100654.09;5049699;28;20031;-31
2023/02/28 01:04:14;;;;;;;22.98;10.90;;;;;;;10.71;89.19;100651.44;5049153;28;20112;-29
2023/02/28 01:06:40;;;;;;;21.02;10.45;;;;;;;11.01;86.86;100651.84;5049393;28;20032;-35
2023/02/28 01:09:07;;;;;;;17.33;9.48;;;;;;;10.68;87.44;100629.69;5049101;28;20084;-30
2023/02/28 01:11:33;;;;;;;19.27;10.35;;;;;;;10.59;88.31;100642.41;5049025;28;20033;-29
2023/02/28 01:13:59;;;;;;;19.13;10.70;;;;;;;10.55;89.63;100659.84;5049361;28;20017;-29
2023/02/28 01:16:27;;;;;;;19.13;9.90;;;;;;;10.58;88.16;100643.41;5049116;28;20024;-29
2023/02/28 01:18:53;;;;;;;17.55;10.30;;;;;;;10.37;90.05;100677.22;5048863;28;20109;-31
2023/02/28 01:21:21;;;;;;;20.25;10.90;;;;;;;10.45;89.58;100676.22;5049006;28;20071;-29
2023/02/28 01:23:48;;;;;;;22.75;12.77;;;;;;;10.45;89.65;100671.72;5049047;28;20025;-33
2023/02/28 01:26:18;;;;;;;23.17;11.40;;;;;;;10.38;89.81;100686.91;5049101;28;20082;-30
2023/02/28 01:28:44;;;;;;;21.85;11.07;;;;;;;10.13;91.04;100667.09;5049234;28;20122;-30
2023/02/28 01:31:10;;;;;;;19.70;11.27;;;;;;;10.33;90.83;100683.19;5048931;28;20072;-29
2023/02/28 01:33:37;;;;;;;19.60;11.23;;;;;;;10.35;90.04;100671.28;5048750;28;20021;-29
2023/02/28 01:36:04;;;;;;;18.13;10.52;;;;;;;10.53;89.07;100693.88;5048978;28;20110;-30
2023/02/28 01:38:32;;;;;;;23.30;11.00;;;;;;;10.21;89.90;100689.06;5049142;28;20025;-29
2023/02/28 01:40:57;;;;;;;19.67;11.23;;;;;;;10.29;90.67;100709.38;5048744;28;20417;-32
2023/02/28 01:43:25;;;;;;;21.35;12.35;;;;;;;10.26;90.42;100696.47;5048541;28;20049;-29
2023/02/28 01:45:53;;;;;;;22.00;12.15;;;;;;;10.33;89.67;100697.31;5048651;28;20037;-31
2023/02/28 01:48:23;;;;;;;20.58;11.05;;;;;;;10.45;89.75;100713.56;5048665;28;20040;-30
2023/02/28 01:50:49;;;;;;;23.27;11.02;;;;;;;10.14;90.38;100696.22;5048850;28;20108;-31
2023/02/28 01:53:19;;;;;;;23.27;12.25;;;;;;;10.35;90.17;100711.28;5048499;28;20033;-31
2023/02/28 01:55:48;;;;;;;20.45;11.65;;;;;;;10.19;89.86;100698.28;5048761;28;20024;-29
2023/02/28 01:58:14;;;;;;;19.35;11.13;;;;;;;10.29;90.66;100714.72;5048591;28;20040;-30
2023/02/28 02:00:42;;;;;;;19.58;10.98;;;;;;;10.35;88.33;100705.94;5048645;28;20029;-30
2023/02/28 02:03:18;;;;;;;22.88;11.35;;;;;;;10.33;89.00;100721.31;5048904;28;20021;-30
2023/02/28 02:05:47;;;;;;;21.27;11.57;;;;;;;10.28;88.62;100729.09;5048861;28;20119;-31
2023/02/28 02:08:18;;;;;;;21.70;11.23;;;;;;;10.28;88.99;100734.41;5048565;28;20047;-31
2023/02/28 02:10:49;;;;;;;18.88;10.45;;;;;;;10.09;88.42;100735.16;5048774;28;20077;-29
2023/02/28 02:13:56;;;;;;;22.52;12.57;;;;;;;10.21;87.66;100758.34;5048124;28;20044;-30
2023/02/28 02:16:43;;;;;;;19.43;11.07;;;;;;;10.11;88.32;100751.75;5047388;28;20128;-31
2023/02/28 02:19:30;;;;;;;19.57;9.37;;;;;;;9.80;89.95;100747.72;5048377;28;20060;-31
2023/02/28 02:21:55;;;;;;;21.80;9.85;;;;;;;9.86;89.38;100736.28;5048582;28;20025;-29
2023/02/28 02:24:42;;;;;;;18.23;10.32;;;;;;;9.89;89.52;100761.69;5048667;28;20035;-29
2023/02/28 02:27:29;;;;;;;18.38;9.43;;;;;;;10.03;88.12;100774.91;5048495;28;20040;-30
2023/02/28 02:30:13;;;;;;;18.27;9.95;;;;;;;9.75;89.63;100760.81;5050770;28;20548;-29
2023/02/28 02:33:04;;;;;;;17.10;8.85;;;;;;;9.70;89.26;100761.41;5052013;28;20409;-29
2023/02/28 02:35:40;;;;;;;25.55;10.65;;;;;;;9.64;89.68;100760.34;5050584;28;20076;-31
2023/02/28 02:38:25;;;;;;;16.80;10.52;;;;;;;9.58;89.81;100766.47;5051880;28;20112;-30
2023/02/28 02:41:10;;;;;;;19.48;9.52;;;;;;;9.72;89.00;100751.38;5052074;28;20091;-30
2023/02/28 02:43:43;;;;;;;18.77;9.15;;;;;;;9.53;89.85;100752.09;5051623;28;20037;-31
2023/02/28 02:46:17;;;;;;;17.20;9.98;;;;;;;9.51;89.84;100746.94;5051847;28;20025;-29
2023/02/28 02:48:46;;;;;;;16.58;8.80;;;;;;;9.41;90.14;100754.47;5051494;28;20595;-30
2023/02/28 02:51:18;;;;;;;20.25;10.05;;;;;;;9.32;90.30;100751.13;5051729;28;20630;-30
2023/02/28 02:54:05;;;;;;;20.17;10.15;;;;;;;9.13;91.58;100739.28;5051720;28;20033;-30
2023/02/28 02:56:33;;;;;;;18.07;10.07;;;;;;;9.47;90.35;100766.19;5051574;28;20043;-32
2023/02/28 02:59:06;;;;;;;33.05;19.60;;;;;;;9.37;90.53;100785.13;5051441;28;20025;-30
2023/02/28 03:01:33;;;;;;;27.17;12.63;;;;;;;9.26;91.26;100778.50;5051583;28;20037;-30
2023/02/28 03:04:16;;;;;;;62.80;29.95;;;;;;;9.35;91.32;100787.19;5051802;28;20114;-29
2023/02/28 03:06:42;;;;;;;37.20;17.10;;;;;;;9.18;90.84;100776.00;5051469;28;20025;-30
2023/02/28 03:09:07;;;;;;;38.00;19.17;;;;;;;9.27;91.39;100800.63;5051481;28;20039;-30
2023/02/28 03:11:36;;;;;;;32.85;16.77;;;;;;;9.24;90.90;100809.81;5051071;28;20065;-31
2023/02/28 03:14:17;;;;;;;79.45;29.75;;;;;;;9.34;90.65;100817.50;5051469;28;20025;-30
2023/02/28 03:17:14;;;;;;;166.20;54.88;;;;;;;9.47;89.89;100827.41;5051122;28;20029;-32
2023/02/28 03:20:21;;;;;;;103.55;39.33;;;;;;;9.40;89.39;100828.19;5050742;28;20527;-31
2023/02/28 03:22:52;;;;;;;42.75;19.85;;;;;;;9.25;90.71;100825.59;5048592;28;20416;-29
2023/02/28 03:25:35;;;;;;;29.65;16.55;;;;;;;9.21;90.58;100832.31;5048440;28;20025;-29
2023/02/28 03:28:28;;;;;;;17.67;10.15;;;;;;;9.38;89.75;100829.41;5050403;28;20055;-29
2023/02/28 03:31:22;;;;;;;27.60;15.40;;;;;;;9.11;91.08;100818.50;5051099;28;20072;-30
2023/02/28 03:33:55;;;;;;;19.75;9.40;;;;;;;9.05;90.90;100813.94;5049665;28;20553;-31
2023/02/28 03:36:26;;;;;;;20.65;11.43;;;;;;;8.93;91.82;100800.34;5050847;28;20036;-30
2023/02/28 03:38:58;;;;;;;19.92;10.18;;;;;;;9.09;90.82;100807.22;5050700;28;20409;-30
2023/02/28 03:41:31;;;;;;;24.85;13.77;;;;;;;9.18;90.05;100808.75;5049422;28;20132;-32
2023/02/28 03:44:02;;;;;;;25.40;13.70;;;;;;;8.97;89.78;100806.06;5050756;28;20079;-29
2023/02/28 03:46:32;;;;;;;23.90;12.43;;;;;;;8.95;90.27;100808.09;5050812;28;20032;-30
2023/02/28 03:49:08;;;;;;;16.95;9.43;;;;;;;9.01;89.48;100813.50;5050468;28;20033;-29
2023/02/28 03:51:35;;;;;;;18.50;11.70;;;;;;;9.11;89.86;100830.97;5050595;28;20028;-31
2023/02/28 03:54:08;;;;;;;18.25;8.55;;;;;;;9.04;89.58;100818.44;5050519;28;20060;-30
2023/02/28 03:56:37;;;;;;;20.13;10.20;;;;;;;9.02;89.75;100832.94;5050588;28;20139;-30
2023/02/28 03:59:35;;;;;;;19.38;9.75;;;;;;;9.00;90.75;100842.97;5050311;28;20043;-30
2023/02/28 04:02:00;;;;;;;17.50;8.25;;;;;;;8.99;89.63;100830.66;5045207;28;20515;-30
2023/02/28 04:04:26;;;;;;;18.90;11.00;;;;;;;8.90;89.47;100831.81;5050700;28;20036;-31
2023/02/28 04:07:00;;;;;;;18.00;9.55;;;;;;;8.82;90.32;100817.59;5050389;28;20028;-29
2023/02/28 04:09:25;;;;;;;23.95;13.70;;;;;;;8.99;89.50;100846.63;5050060;28;20116;-30
2023/02/28 04:11:55;;;;;;;19.05;11.13;;;;;;;8.95;89.44;100840.03;5050081;28;20116;-30
2023/02/28 04:14:21;;;;;;;20.08;11.10;;;;;;;9.18;89.15;100855.84;5050314;28;20039;-30
2023/02/28 04:16:47;;;;;;;17.77;9.25;;;;;;;9.41;87.24;100861.75;5050202;28;20036;-30
2023/02/28 04:19:14;;;;;;;22.40;10.13;;;;;;;9.03;87.30;100845.22;5050079;28;20032;-29
2023/02/28 04:21:48;;;;;;;25.02;12.73;;;;;;;9.01;88.81;100860.56;5050057;28;20025;-31
2023/02/28 04:24:21;;;;;;;22.42;11.25;;;;;;;8.83;89.60;100861.81;5049776;28;20059;-30
2023/02/28 04:26:50;;;;;;;22.70;12.70;;;;;;;8.99;88.96;100851.94;5050175;28;20028;-29
2023/02/28 04:29:26;;;;;;;23.15;11.27;;;;;;;8.87;88.26;100832.16;5049710;28;20493;-30
2023/02/28 04:31:57;;;;;;;19.77;10.48;;;;;;;8.96;88.56;100853.16;5050022;28;20029;-32
2023/02/28 04:34:24;;;;;;;20.35;9.50;;;;;;;8.99;88.12;100857.25;5049707;28;20024;-34
2023/02/28 04:36:50;;;;;;;19.30;9.43;;;;;;;8.81;88.39;100849.72;5049545;28;20029;-30
2023/02/28 04:39:18;;;;;;;16.90;9.23;;;;;;;8.72;88.72;100850.84;5049376;28;20090;-29
2023/02/28 04:41:44;;;;;;;17.77;9.18;;;;;;;8.59;89.64;100849.66;5049650;28;20080;-30
2023/02/28 04:44:09;;;;;;;14.40;7.68;;;;;;;8.63;89.96;100866.09;5049597;28;20108;-32
2023/02/28 04:46:35;;;;;;;18.05;9.27;;;;;;;8.70;89.50;100877.59;5049523;28;20540;-29
2023/02/28 04:49:00;;;;;;;18.25;10.35;;;;;;;8.51;90.69;100880.84;5049713;28;20025;-27
2023/02/28 04:51:26;;;;;;;17.20;8.82;;;;;;;8.52;90.20;100864.72;5048825;28;20045;-30
2023/02/28 04:53:52;;;;;;;20.35;9.65;;;;;;;8.63;90.57;100887.34;5049414;28;20039;-30
2023/02/28 04:56:18;;;;;;;16.42;9.23;;;;;;;8.69;90.18;100880.47;5049472;28;20028;-29
2023/02/28 04:58:44;;;;;;;15.98;8.65;;;;;;;8.36;91.07;100865.72;5049611;28;20111;-29
2023/02/28 05:01:22;;;;;;;20.23;9.75;;;;;;;8.50;90.41;100860.59;5049388;28;20111;-29
2023/02/28 05:03:48;;;;;;;17.50;9.05;;;;;;;8.57;90.79;100886.25;5049546;28;20075;-30
2023/02/28 05:06:17;;;;;;;18.02;8.88;;;;;;;8.59;90.24;100894.06;5049072;28;20040;-29
2023/02/28 05:08:43;;;;;;;20.90;10.50;;;;;;;8.72;89.19;100896.84;5048007;28;20396;-31
2023/02/28 05:11:23;;;;;;;17.00;9.02;;;;;;;8.63;90.27;100890.00;5049403;28;20080;-30
2023/02/28 05:13:49;;;;;;;20.50;9.77;;;;;;;8.64;89.95;100892.50;5049404;28;20108;-28
2023/02/28 05:16:15;;;;;;;19.83;10.77;;;;;;;8.61;90.07;100876.91;5048938;28;20128;-29
2023/02/28 05:18:41;;;;;;;21.83;9.63;;;;;;;8.72;89.27;100893.38;5048948;28;20529;-29
2023/02/28 05:21:23;;;;;;;25.38;10.52;;;;;;;8.55;90.39;100919.34;5049280;28;20029;-29
2023/02/28 05:23:53;;;;;;;21.00;12.05;;;;;;;8.56;90.07;100899.72;5049032;28;20044;-32
2023/02/28 05:26:19;;;;;;;21.73;11.20;;;;;;;8.60;89.81;100901.84;5049200;28;20039;-29
2023/02/28 05:28:44;;;;;;;22.90;9.75;;;;;;;8.30;90.75;100895.69;5048926;28;20036;-29
2023/02/28 05:31:13;;;;;;;26.60;13.43;;;;;;;8.55;91.00;100920.19;5048837;28;20033;-31
2023/02/28 05:33:39;;;;;;;26.65;11.18;;;;;;;8.60;90.04;100903.66;5049182;28;20035;-32
2023/02/28 05:36:05;;;;;;;22.20;11.43;;;;;;;8.78;89.80;100930.69;5049006;28;20033;-31
2023/02/28 05:38:31;;;;;;;31.35;13.85;;;;;;;8.83;89.79;100938.94;5048835;28;20108;-31
2023/02/28 05:40:56;;;;;;;18.05;9.57;;;;;;;8.73;89.64;100927.78;5048699;28;20115;-31
2023/02/28 05:43:22;;;;;;;20.98;10.82;;;;;;;8.56;90.44;100923.66;5048502;28;20080;-30
2023/02/28 05:45:48;;;;;;;46.33;22.23;;;;;;;8.45;91.15;100924.94;5049031;28;20033;-34
2023/02/28 05:48:13;;;;;;;29.30;15.07;;;;;;;8.41;91.53;100940.44;5047559;28;20108;-29
2023/02/28 05:50:38;;;;;;;29.60;13.60;;;;;;;8.32;92.81;100949.47;5049048;28;20025;-34
2023/02/28 05:53:04;;;;;;;31.38;19.13;;;;;;;8.42;92.51;100941.28;5048705;28;20456;-31
2023/02/28 05:55:29;;;;;;;22.80;10.98;;;;;;;8.56;91.23;100942.25;5048151;28;20071;-31
2023/02/28 05:57:55;;;;;;;23.83;12.82;;;;;;;8.51;91.50;100931.38;5048799;28;20552;-30
2023/02/28 06:00:21;;;;;;;25.98;13.82;;;;;;;8.50;91.01;100932.38;5048486;28;20017;-30
2023/02/28 06:02:49;;;;;;;23.67;13.52;;;;;;;8.53;91.13;100945.31;5048873;28;20033;-30
2023/02/28 06:05:17;;;;;;;25.67;14.45;;;;;;;8.70;90.42;100952.06;5051364;28;20029;-30
2023/02/28 06:07:43;;;;;;;23.55;12.65;;;;;;;8.65;90.38;100957.94;5052801;28;20041;-31
2023/02/28 06:10:12;;;;;;;19.17;10.50;;;;;;;8.49;90.99;100946.69;5052333;28;20481;-30
2023/02/28 06:12:38;;;;;;;21.38;13.02;;;;;;;8.62;90.98;100962.78;5052482;28;20025;-30
2023/02/28 06:15:04;;;;;;;39.88;21.23;;;;;;;8.67;89.93;100954.28;5052379;28;20025;-36
2023/02/28 06:17:29;;;;;;;29.40;15.75;;;;;;;8.81;89.89;100967.56;5052150;28;20061;-30
2023/02/28 06:19:55;;;;;;;34.53;14.90;;;;;;;8.95;88.60;100978.34;5052718;28;20158;-29
2023/02/28 06:22:20;;;;;;;166.43;51.13;;;;;;;9.06;87.88;100975.25;5052224;28;20477;-31
2023/02/28 06:24:46;;;;;;;100.13;32.13;;;;;;;8.97;88.17;100992.31;5052273;28;20021;-30
2023/02/28 06:27:11;;;;;;;23.10;12.65;;;;;;;8.57;89.80;100989.13;5051989;28;20405;-31
2023/02/28 06:29:39;;;;;;;37.97;18.50;;;;;;;8.45;91.22;100989.56;5052121;28;20021;-30
2023/02/28 06:32:05;;;;;;;42.38;20.55;;;;;;;8.54;90.55;100977.03;5052208;28;20032;-35
2023/02/28 06:34:33;;;;;;;32.92;16.58;;;;;;;8.44;90.22;100981.78;5052071;28;20053;-29
2023/02/28 06:37:01;;;;;;;40.15;21.27;;;;;;;8.52;90.43;100979.03;5052171;28;20064;-30
2023/02/28 06:39:28;;;;;;;42.55;20.08;;;;;;;8.41;91.20;100974.97;5051812;28;20035;-29
2023/02/28 06:41:53;;;;;;;22.60;12.23;;;;;;;8.59;89.92;100993.25;5051532;28;20076;-30
2023/02/28 06:44:19;;;;;;;78.75;34.83;;;;;;;8.37;90.55;100972.84;5052319;28;20060;-29
2023/02/28 06:46:45;;;;;;;25.90;14.05;;;;;;;8.40;89.64;100964.53;5052124;28;20032;-29
2023/02/28 06:49:11;;;;;;;26.75;15.43;;;;;;;8.33;90.81;100977.69;5051780;28;20815;-30
2023/02/28 06:51:39;;;;;;;22.40;12.15;;;;;;;8.43;90.81;100990.75;5051532;28;20056;-30
2023/02/28 06:54:08;;;;;;;17.55;9.50;;;;;;;8.33;91.02;100979.53;5051688;28;20021;-32
2023/02/28 06:56:34;;;;;;;19.17;10.68;;;;;;;8.44;90.50;100995.91;5051459;28;20029;-29
2023/02/28 06:59:00;;;;;;;23.15;11.25;;;;;;;8.57;90.45;101007.72;5051658;28;20124;-31
2023/02/28 07:01:27;;;;;;;35.35;18.90;;;;;;;8.51;90.59;100992.50;5050266;28;20533;-30
2023/02/28 07:03:53;;;;;;;21.23;11.98;;;;;;;8.50;90.65;101002.34;5051547;28;20108;-32
2023/02/28 07:06:22;;;;;;;26.80;13.00;;;;;;;8.41;90.49;100979.47;5051662;28;20116;-31
2023/02/28 07:08:48;;;;;;;17.65;9.98;;;;;;;8.60;89.24;100991.41;5051382;28;20393;-30
2023/02/28 07:11:14;;;;;;;22.67;12.52;;;;;;;8.10;91.50;100990.22;5050821;28;20051;-30
2023/02/28 07:13:39;;;;;;;19.50;10.43;;;;;;;8.35;91.82;101009.41;5051558;28;20047;-32
2023/02/28 07:16:08;;;;;;;17.75;9.65;;;;;;;8.35;91.29;101010.22;5051339;28;20056;-33
2023/02/28 07:18:34;;;;;;;16.83;9.43;;;;;;;8.28;91.14;101011.16;5051136;28;20021;-32
2023/02/28 07:21:08;;;;;;;19.30;10.38;;;;;;;8.52;90.59;101010.09;5051091;28;20079;-30
2023/02/28 07:23:35;;;;;;;16.70;9.18;;;;;;;8.32;90.80;100993.84;5050910;28;20485;-31
2023/02/28 07:26:01;;;;;;;16.88;8.32;;;;;;;8.12;91.57;100985.56;5051234;28;20025;-29
2023/02/28 07:28:27;;;;;;;14.50;8.52;;;;;;;8.39;90.87;100990.25;5051432;28;20025;-31
2023/02/28 07:30:52;;;;;;;18.63;10.15;;;;;;;8.31;90.71;100970.91;5051117;28;20634;-33
2023/02/28 07:33:18;;;;;;;21.05;11.68;;;;;;;8.63;89.52;101001.69;5050606;28;20107;-30
2023/02/28 07:35:43;;;;;;;21.92;12.45;;;;;;;8.48;89.29;100999.03;5050781;28;20043;-30
2023/02/28 07:38:09;;;;;;;15.38;9.52;;;;;;;8.52;89.58;100999.47;5050618;28;20021;-32
2023/02/28 07:40:35;;;;;;;38.33;16.40;;;;;;;8.32;90.25;100984.03;5050978;28;20029;-29
2023/02/28 07:43:01;;;;;;;41.58;20.60;;;;;;;8.42;90.77;101005.88;5050616;28;20139;-30
2023/02/28 07:45:28;;;;;;;33.83;16.55;;;;;;;8.38;90.71;100998.44;5050799;28;20104;-29
2023/02/28 07:47:54;;;;;;;27.95;13.10;;;;;;;8.65;89.89;100997.00;5050610;28;20032;-32
2023/02/28 07:50:20;;;;;;;30.63;15.23;;;;;;;8.71;89.68;101006.91;5050750;28;20048;-31
2023/02/28 07:52:45;;;;;;;19.05;10.85;;;;;;;8.31;90.63;100993.00;5050408;28;20059;-29
2023/02/28 07:55:13;;;;;;;16.65;9.45;;;;;;;8.17;92.22;101001.78;5050346;28;20025;-31
2023/02/28 07:57:39;;;;;;;41.47;19.92;;;;;;;8.28;91.63;100989.91;5050613;28;20485;-30
2023/02/28 08:00:09;;;;;;;29.08;15.35;;;;;;;8.40;91.84;101010.53;5050399;28;20064;-30
2023/02/28 08:02:34;;;;;;;37.33;17.30;;;;;;;8.41;91.47;101014.84;5050421;28;20060;-30
2023/02/28 08:05:00;;;;;;;27.33;13.55;;;;;;;8.35;92.32;101006.75;5050219;28;20118;-30
2023/02/28 08:07:26;;;;;;;24.15;11.93;;;;;;;8.27;93.59;101022.78;5049888;28;20131;-31
2023/02/28 08:09:51;;;;;;;42.03;16.02;;;;;;;8.38;92.97;101031.16;5050364;28;20151;-30
2023/02/28 08:12:16;;;;;;;32.70;16.67;;;;;;;8.32;93.60;101031.06;5050312;28;20028;-32
2023/02/28 08:14:42;;;;;;;27.08;14.43;;;;;;;8.23;94.46;101022.31;5049943;28;20029;-29
2023/02/28 08:17:07;;;;;;;67.55;35.70;;;;;;;8.38;93.78;101009.88;5050128;28;20025;-30
2023/02/28 08:19:33;;;;;;;52.63;27.65;;;;;;;8.36;92.67;101006.59;5049828;28;20029;-30
2023/02/28 08:21:58;;;;;;;45.13;25.67;;;;;;;8.49;93.23;101010.47;5048316;28;20024;-30
2023/02/28 08:24:24;;;;;;;59.20;34.92;;;;;;;8.49;93.46;101032.56;5050376;28;20091;-31
2023/02/28 08:26:50;;;;;;;80.43;45.53;;;;;;;8.16;95.17;101013.41;5049485;28;20129;-30
2023/02/28 08:29:15;;;;;;;54.35;28.20;;;;;;;8.41;94.16;101014.03;5049645;28;20130;-30
2023/02/28 08:31:41;;;;;;;68.10;30.05;;;;;;;8.39;94.31;101016.84;5049687;28;20104;-33
2023/02/28 08:34:12;;;;;;;45.92;23.50;;;;;;;8.45;93.68;101015.31;5049846;28;20031;-31
2023/02/28 08:36:39;;;;;;;74.30;31.13;;;;;;;8.38;94.25;101020.53;5048099;28;20024;-31
2023/02/28 08:39:06;;;;;;;142.85;82.18;;;;;;;8.40;93.51;101001.75;5049489;28;20087;-30
2023/02/28 08:41:31;;;;;;;73.53;30.02;;;;;;;8.50;93.70;101014.78;5049170;28;20052;-29
2023/02/28 08:43:57;;;;;;;121.40;46.47;;;;;;;8.66;92.58;101017.25;5049559;28;20417;-29
2023/02/28 08:46:22;;;;;;;46.00;21.75;;;;;;;8.63;92.87;101023.78;5049561;28;20041;-30
2023/02/28 08:48:54;;;;;;;75.70;27.90;;;;;;;8.54;92.43;101008.09;5049360;28;20037;-30
2023/02/28 08:51:25;;;;;;;90.15;31.38;;;;;;;8.67;91.93;101008.28;5049446;28;20048;-30
2023/02/28 08:53:55;;;;;;;47.70;20.90;;;;;;;8.79;91.63;101008.66;5049475;28;20055;-29
2023/02/28 08:56:21;;;;;;;51.35;24.42;;;;;;;8.83;90.23;101029.38;5049275;28;20029;-29
2023/02/28 08:58:48;;;;;;;59.67;25.75;;;;;;;8.68;91.31;101033.03;5049354;28;20064;-27
2023/02/28 09:01:27;;;;;;;49.13;23.63;;;;;;;8.53;92.38;101030.38;5049038;28;20230;-33
2023/02/28 09:03:53;;;;;;;30.65;14.05;;;;;;;8.77;91.13;101040.75;5049682;28;20029;-30
2023/02/28 09:06:20;;;;;;;47.58;23.05;;;;;;;8.89;90.68;101048.25;5049271;28;20504;-31
2023/02/28 09:08:46;;;;;;;25.08;14.63;;;;;;;8.84;90.54;101041.66;5049319;28;20194;-29
2023/02/28 09:11:12;;;;;;;68.13;27.23;;;;;;;8.78;90.81;101031.75;5049019;28;20632;-29
2023/02/28 09:13:38;;;;;;;79.28;28.52;;;;;;;8.89;90.19;101046.44;5048925;28;20032;-29
2023/02/28 09:16:06;;;;;;;55.47;23.70;;;;;;;8.61;91.57;101040.94;5048914;28;20029;-30
2023/02/28 09:18:33;;;;;;;33.53;15.80;;;;;;;8.69;91.08;101024.88;5049255;28;20040;-29
2023/02/28 09:20:58;;;;;;;24.00;12.07;;;;;;;8.70;91.86;101045.13;5048998;28;20040;-29
2023/02/28 09:23:24;;;;;;;38.78;19.60;;;;;;;8.65;91.25;101027.06;5048957;28;20029;-29
2023/02/28 09:25:53;;;;;;;60.50;26.92;;;;;;;8.54;92.80;101026.69;5048935;28;20075;-29
2023/02/28 09:28:20;;;;;;;38.33;19.52;;;;;;;8.89;90.94;101011.03;5048960;28;20025;-30
2023/02/28 09:30:48;;;;;;;38.03;20.88;;;;;;;8.75;91.21;101016.19;5048645;28;20029;-31
2023/02/28 09:33:14;;;;;;;38.30;21.48;;;;;;;8.98;90.10;100986.81;5048774;28;20020;-29
2023/02/28 09:35:39;;;;;;;30.33;16.13;;;;;;;9.07;89.33;101002.66;5048744;28;20386;-30
2023/02/28 09:38:07;;;;;;;38.42;18.58;;;;;;;8.97;89.71;100993.16;5048890;28;20404;-35
2023/02/28 09:40:36;;;;;;;37.75;17.23;;;;;;;8.83;90.47;100991.31;5052481;28;20032;-29
2023/02/28 09:43:02;;;;;;;42.25;18.42;;;;;;;8.89;90.30;101005.69;5052713;28;20049;-29
2023/02/28 09:45:33;;;;;;;47.60;21.15;;;;;;;8.93;90.55;101002.50;5052978;28;20035;-30
2023/02/28 09:48:22;;;;;;;47.55;19.77;;;;;;;8.94;90.54;100992.69;5053028;28;20032;-30
2023/02/28 09:50:51;;;;;;;37.20;17.83;;;;;;;9.10;89.95;100991.66;5052848;28;20075;-30
2023/02/28 09:53:28;;;;;;;29.80;14.65;;;;;;;9.22;88.62;100990.16;5052430;28;20527;-31
2023/02/28 09:56:05;;;;;;;44.28;20.15;;;;;;;9.37;87.59;100998.09;5052765;28;20036;-32
2023/02/28 09:58:33;;;;;;;34.42;17.60;;;;;;;9.41;87.28;100992.22;5052764;28;20042;-30
2023/02/28 10:01:36;;;;;;;80.28;41.95;;;;;;;9.37;86.76;100982.13;5052798;28;20044;-30
2023/02/28 10:04:13;;;;;;;105.65;38.83;;;;;;;9.30;87.74;100981.25;5051347;28;20506;-33
2023/02/28 10:06:48;;;;;;;79.15;46.25;;;;;;;9.48;86.63;100986.97;5052839;28;20035;-30
2023/02/28 10:09:29;;;;;;;43.55;29.10;;;;;;;9.47;85.25;100995.97;5052160;28;20116;-31
2023/02/28 10:12:01;;;;;;;48.72;25.92;;;;;;;9.42;85.53;100979.75;5052523;28;20033;-30
2023/02/28 10:14:29;;;;;;;45.03;22.70;;;;;;;9.56;85.40;100975.34;5052208;28;20112;-32
2023/02/28 10:16:59;;;;;;;64.18;33.95;;;;;;;9.55;85.83;100973.72;5052362;28;20064;-31
2023/02/28 10:19:48;;;;;;;36.22;21.98;;;;;;;9.69;84.26;100980.00;5052277;28;20032;-31
2023/02/28 10:22:17;;;;;;;27.88;14.73;;;;;;;9.54;84.77;100980.06;5051038;28;20457;-30
2023/02/28 10:24:48;;;;;;;41.58;24.25;;;;;;;9.47;84.66;100945.38;5052025;28;20489;-31
2023/02/28 10:27:32;;;;;;;60.03;30.92;;;;;;;9.39;84.51;100942.84;5051854;28;20048;-31
2023/02/28 10:30:00;;;;;;;82.97;40.00;;;;;;;9.50;84.32;100966.31;5052326;28;20035;-31
2023/02/28 10:32:28;;;;;;;45.88;22.50;;;;;;;9.64;84.61;100962.75;5052121;28;20025;-30
2023/02/28 10:35:01;;;;;;;46.50;23.50;;;;;;;9.56;84.86;100965.56;5051769;28;20575;-30
2023/02/28 10:37:27;;;;;;;44.17;21.83;;;;;;;9.77;83.35;100961.22;5051528;28;20028;-31
2023/02/28 10:39:56;;;;;;;31.35;18.15;;;;;;;9.42;84.81;100953.13;5051985;28;20029;-29
2023/02/28 10:42:30;;;;;;;23.95;14.43;;;;;;;9.63;83.79;100966.44;5052011;28;20059;-30
2023/02/28 10:45:12;;;;;;;38.35;20.33;;;;;;;9.68;83.92;100970.34;5051974;28;20099;-29
2023/02/28 10:47:59;;;;;;;26.65;14.68;;;;;;;9.40;84.46;100968.47;5051428;28;20032;-31
2023/02/28 10:50:43;;;;;;;35.88;19.98;;;;;;;9.63;83.85;100963.75;5051347;28;20032;-29
2023/02/28 10:53:24;;;;;;;51.53;34.38;;;;;;;9.37;84.60;100950.19;5051539;28;20033;-30
2023/02/28 10:56:16;;;;;;;33.13;19.83;;;;;;;9.65;83.83;100952.94;5051690;28;20032;-29
2023/02/28 10:59:01;;;;;;;39.92;21.85;;;;;;;9.53;83.56;100949.13;5051492;28;20114;-33
2023/02/28 11:01:29;;;;;;;29.00;18.30;;;;;;;9.47;84.15;100937.38;5051307;28;20037;-30
2023/02/28 11:03:57;;;;;;;23.17;12.93;;;;;;;9.36;84.21;100921.94;5051622;28;20063;-30
2023/02/28 11:06:31;;;;;;;25.63;14.17;;;;;;;9.51;83.82;100929.84;5051331;28;20036;-30
2023/02/28 11:09:00;;;;;;;34.78;17.00;;;;;;;9.44;85.03;100919.16;5051425;28;20262;-32
2023/02/28 11:11:31;;;;;;;28.48;16.70;;;;;;;9.74;82.66;100924.31;5051100;28;20516;-31
2023/02/28 11:14:05;;;;;;;25.08;16.30;;;;;;;9.83;82.41;100923.16;5051389;28;20029;-30
2023/02/28 11:16:39;;;;;;;25.83;14.60;;;;;;;9.67;82.68;100908.28;5051259;28;20036;-28
2023/02/28 11:19:20;;;;;;;20.80;11.95;;;;;;;9.57;83.63;100927.25;5051043;28;20021;-32
2023/02/28 11:21:59;;;;;;;22.52;13.35;;;;;;;9.45;83.78;100897.63;5051384;28;20035;-31
2023/02/28 11:24:26;;;;;;;22.75;14.38;;;;;;;9.48;84.65;100931.06;5050039;28;20112;-30
2023/02/28 11:26:52;;;;;;;24.48;14.27;;;;;;;9.41;84.86;100922.16;5051088;28;20424;-31
2023/02/28 11:29:25;;;;;;;23.92;14.15;;;;;;;9.57;84.36;100918.44;5050753;28;20112;-30